Airfield :







YOU CAN JOIN US ON...

 
LOGIN :

Register | Disclaimer

   EN    FR    IT 

 









Legend :    VFR   Marginal VFR   IFR   Intensive IFR   Very Intensive IFR
Visi :
Ceiling :
>= 8 km
>= 3000ft
5 to 8 km
1000 to 3000 ft
1500m to 5 km
500 to 1000 ft
800 to 1500m
200 to 500 ft
< 800m
< 200 ft
Symbols :   Thunderstorms  Fog  Heavy snow  Heavy precipitations  Wind > 20 kt






- Airport Elevation : 1005 ft
- IATA code : YAH


CYAH - La Grande-4

CURRENT METAR :
  • 040700Z AUTO 19007KT 9SM -SN OVC120 M11/M13 A2955 RMK SLP032

EXPIRED METARs :
  • 040644Z AUTO 20008KT 9SM -SN FEW039 OVC130 M11/M13 A2954 RMK SLP030
  • 040600Z AUTO 20008KT 9SM FEW033 SCT110 OVC130 M11/M14 A2954 RMK SLP030
  • 040531Z AUTO 20008KT 9SM -SN SCT022 BKN028 OVC033 M11/M14 A2952 RMK SLP027
  • 040500Z AUTO 20010KT 9SM -SN OVC022 M11/M13 A2952 RMK SLP026

Expired Forecast.
CZUL FIR / North America



MET'MAP, your aeronautical weather chart ! - Copyright ORBIFLY December 2007 - Disclaimer

ORBIFLY MET'MAP TEAM :

Programming & Development : Alexandra Zaïnal
Concept & original design : Baudouin d'Aumeries
Assistance for programming : Marc-Olivier Méhu
Technical & hardware support : Manuel Goepfert

Contact : metmap@orbifly.com




SOURCES & CREDITS :

   NOAA